createdAt,value
2018-12-27T00:01:33.683Z,81.06
2018-12-27T00:06:37.440Z,80.61
2018-12-27T00:11:41.158Z,80.32
2018-12-27T00:16:44.894Z,80.05
2018-12-27T00:21:48.667Z,80.04
2018-12-27T00:26:52.436Z,79.77
2018-12-27T00:31:56.475Z,79.91
2018-12-27T00:37:00.467Z,79.59
2018-12-27T00:42:04.528Z,80.10
2018-12-27T00:47:08.551Z,80.74
2018-12-27T00:52:12.585Z,80.72
2018-12-27T00:57:16.651Z,80.85
2018-12-27T01:02:20.634Z,81.73
2018-12-27T01:07:24.655Z,81.98
2018-12-27T01:12:28.752Z,82.27
2018-12-27T01:17:32.855Z,82.22
2018-12-27T01:22:36.901Z,82.76
2018-12-27T01:27:40.932Z,83.19
2018-12-27T01:32:44.932Z,83.39
2018-12-27T01:37:48.926Z,83.80
2018-12-27T01:42:53.424Z,83.86
2018-12-27T01:47:57.453Z,83.46
2018-12-27T01:53:01.573Z,82.91
2018-12-27T01:58:05.583Z,82.20
2018-12-27T02:03:09.638Z,82.17
2018-12-27T02:08:13.637Z,82.29
2018-12-27T02:13:17.613Z,82.88
2018-12-27T02:18:21.688Z,83.25
2018-12-27T02:23:25.687Z,83.38
2018-12-27T02:28:29.713Z,83.55
2018-12-27T02:33:35.584Z,83.25
2018-12-27T02:38:39.486Z,83.64
2018-12-27T02:43:43.477Z,83.29
2018-12-27T02:48:47.478Z,83.16
2018-12-27T02:53:51.482Z,82.70
2018-12-27T02:58:55.522Z,82.23
2018-12-27T03:03:59.502Z,81.97
2018-12-27T03:09:04.610Z,81.74
2018-12-27T03:14:08.903Z,81.47
2018-12-27T03:19:12.888Z,81.85
2018-12-27T03:24:16.990Z,81.52
2018-12-27T03:29:21.003Z,81.18
2018-12-27T03:34:25.014Z,81.18
2018-12-27T03:39:29.001Z,81.37
2018-12-27T03:44:33.001Z,80.72
2018-12-27T03:49:36.986Z,80.63
2018-12-27T03:54:40.962Z,80.51
2018-12-27T03:59:45.290Z,80.48
2018-12-27T04:04:49.311Z,80.60
2018-12-27T04:09:53.358Z,80.37
2018-12-27T04:15:06.498Z,80.64
2018-12-27T04:20:10.361Z,80.56
2018-12-27T04:25:14.248Z,80.75
2018-12-27T04:30:18.093Z,80.15
2018-12-27T04:35:22.016Z,80.15
2018-12-27T04:40:25.786Z,80.30
2018-12-27T04:45:29.615Z,80.28
2018-12-27T04:50:33.389Z,79.89
2018-12-27T04:55:37.119Z,79.95
2018-12-27T05:00:40.842Z,79.85
2018-12-27T05:05:44.552Z,79.68
2018-12-27T05:10:48.295Z,80.01
2018-12-27T05:15:52.155Z,80.19
2018-12-27T05:20:55.915Z,80.19
2018-12-27T05:25:59.691Z,80.31
2018-12-27T05:31:03.505Z,80.50
2018-12-27T05:36:07.247Z,80.37
2018-12-27T05:41:11.020Z,80.96
2018-12-27T05:46:14.838Z,80.81
2018-12-27T05:51:18.593Z,80.25
2018-12-27T05:56:22.389Z,80.19
2018-12-27T06:01:26.120Z,80.01
2018-12-27T06:06:29.941Z,80.20
2018-12-27T06:11:33.705Z,80.22
2018-12-27T06:16:37.447Z,80.64
2018-12-27T06:21:41.161Z,80.79
2018-12-27T06:26:44.888Z,81.22
2018-12-27T06:31:48.645Z,81.10
2018-12-27T06:36:52.373Z,80.76
2018-12-27T06:41:56.121Z,80.69
2018-12-27T06:46:59.867Z,80.31
2018-12-27T06:52:03.604Z,80.33
2018-12-27T06:57:07.358Z,80.33
2018-12-27T07:02:11.101Z,80.61
2018-12-27T07:07:14.907Z,80.65
2018-12-27T07:12:18.637Z,80.67
2018-12-27T07:17:22.355Z,80.39
2018-12-27T07:22:26.092Z,79.86
2018-12-27T07:27:29.815Z,80.16
2018-12-27T07:32:33.537Z,79.97
2018-12-27T07:37:37.278Z,80.13
2018-12-27T07:42:41.049Z,79.91
2018-12-27T07:47:44.794Z,79.55
2018-12-27T07:52:48.535Z,79.66
2018-12-27T07:57:52.251Z,80.17
2018-12-27T08:02:55.955Z,80.04
2018-12-27T08:07:59.707Z,79.77
2018-12-27T08:13:03.418Z,80.30
2018-12-27T08:18:07.145Z,80.37
2018-12-27T08:23:10.869Z,80.33
2018-12-27T08:28:14.590Z,79.86
2018-12-27T08:33:18.459Z,79.60
2018-12-27T08:38:22.217Z,79.78
2018-12-27T08:43:25.944Z,79.98
2018-12-27T08:48:29.662Z,80.46
2018-12-27T08:53:33.375Z,80.46
2018-12-27T08:58:37.116Z,79.75
2018-12-27T09:03:40.851Z,79.81
2018-12-27T09:08:44.592Z,79.79
2018-12-27T09:13:48.305Z,79.76
2018-12-27T09:18:52.014Z,79.83
2018-12-27T09:23:55.720Z,79.28
2018-12-27T09:28:59.446Z,79.17
2018-12-27T09:34:03.180Z,78.67
2018-12-27T09:39:07.482Z,78.13
2018-12-27T09:44:11.190Z,77.96
2018-12-27T09:49:14.927Z,77.25
2018-12-27T09:54:18.650Z,77.02
2018-12-27T09:59:22.398Z,76.57
2018-12-27T10:04:26.192Z,76.38
2018-12-27T10:09:29.913Z,75.46
2018-12-27T10:14:33.652Z,75.24
2018-12-27T10:19:37.363Z,74.12
2018-12-27T10:24:41.085Z,73.74
2018-12-27T10:29:44.801Z,73.15
2018-12-27T10:34:48.546Z,72.72
2018-12-27T10:39:52.272Z,72.03
2018-12-27T10:44:56.178Z,71.29
2018-12-27T10:49:59.897Z,71.00
2018-12-27T10:55:03.991Z,70.35
2018-12-27T11:00:10.068Z,70.19
2018-12-27T11:05:13.773Z,69.36
2018-12-27T11:10:17.489Z,69.21
2018-12-27T11:15:21.202Z,68.49
2018-12-27T11:20:25.028Z,67.98
2018-12-27T11:25:28.751Z,67.64
2018-12-27T11:30:32.695Z,67.06
2018-12-27T11:35:36.423Z,63.52
2018-12-27T11:40:40.132Z,55.35
2018-12-27T11:45:43.899Z,54.98
2018-12-27T11:50:47.684Z,55.07
2018-12-27T11:55:51.419Z,56.09
2018-12-27T12:00:55.194Z,56.29
2018-12-27T12:06:03.215Z,58.53
2018-12-27T12:11:04.399Z,59.47
2018-12-27T12:16:08.274Z,60.03
2018-12-27T12:43:56.519Z,60.34
2018-12-27T12:49:00.290Z,60.37
2018-12-27T12:54:04.042Z,60.56
2018-12-27T13:04:32.181Z,58.58
2018-12-27T13:09:35.954Z,59.11
2018-12-27T13:14:39.715Z,61.82
2018-12-27T13:19:43.473Z,60.44
2018-12-27T13:24:47.288Z,59.95
2018-12-27T13:29:51.051Z,61.29
2018-12-27T13:34:54.794Z,62.47
2018-12-27T13:39:58.565Z,62.98
2018-12-27T13:45:02.326Z,63.58
2018-12-27T13:50:06.414Z,64.58
2018-12-27T13:55:10.312Z,64.58
2018-12-27T14:00:14.479Z,65.05
2018-12-27T14:05:22.101Z,65.36
2018-12-27T14:10:25.845Z,65.17
2018-12-27T14:15:29.589Z,64.54
2018-12-27T14:20:33.333Z,64.97
2018-12-27T14:25:37.104Z,64.66
2018-12-27T14:30:40.872Z,65.48
2018-12-27T14:35:44.662Z,65.76
2018-12-27T14:40:48.400Z,65.92
2018-12-27T14:45:52.174Z,66.29
2018-12-27T14:50:55.915Z,66.44
2018-12-27T14:55:59.654Z,66.70
2018-12-27T15:01:03.411Z,66.56
2018-12-27T15:06:07.187Z,66.88
2018-12-27T15:11:10.964Z,67.17
2018-12-27T15:16:14.698Z,67.63
2018-12-27T15:21:18.459Z,67.01
2018-12-27T15:26:22.204Z,67.34
2018-12-27T15:31:25.964Z,67.56
2018-12-27T15:36:29.710Z,66.68
2018-12-27T15:41:33.471Z,66.53
2018-12-27T15:46:37.221Z,65.91
2018-12-27T15:51:41.099Z,66.06
2018-12-27T15:56:44.844Z,67.42
2018-12-27T16:01:48.697Z,66.77
2018-12-27T16:06:52.512Z,67.69
2018-12-27T16:11:56.254Z,67.93
2018-12-27T16:17:00.035Z,68.44
2018-12-27T16:22:03.863Z,68.83
2018-12-27T16:27:08.465Z,68.54
2018-12-27T16:32:12.391Z,68.53
2018-12-27T16:37:16.134Z,69.60
2018-12-27T16:42:22.007Z,69.74
2018-12-27T16:47:25.600Z,69.33
2018-12-27T16:52:29.351Z,69.47
2018-12-27T16:57:33.102Z,69.41
2018-12-27T17:02:36.865Z,69.45
2018-12-27T17:07:40.628Z,69.36
2018-12-27T17:12:44.445Z,69.70
2018-12-27T17:17:48.187Z,70.24
2018-12-27T17:22:52.017Z,70.05
2018-12-27T17:27:55.849Z,69.78
2018-12-27T17:32:59.631Z,69.84
2018-12-27T17:38:03.412Z,69.34
2018-12-27T17:43:07.156Z,67.88
2018-12-27T17:48:10.889Z,67.88
2018-12-27T17:53:14.631Z,67.75
2018-12-27T17:58:18.614Z,66.76
2018-12-27T18:03:22.381Z,66.82
2018-12-27T18:08:26.084Z,66.74
2018-12-27T18:13:30.073Z,67.20
2018-12-27T18:18:33.867Z,68.04
2018-12-27T18:23:37.653Z,67.67
2018-12-27T18:28:41.462Z,67.61
2018-12-27T18:33:45.295Z,67.20
2018-12-27T18:38:51.898Z,67.23
2018-12-27T18:43:55.636Z,66.84
2018-12-27T18:48:59.525Z,65.97
2018-12-27T18:54:04.610Z,65.79
2018-12-27T18:59:09.862Z,65.82
2018-12-27T19:04:13.713Z,66.18
2018-12-27T19:09:17.679Z,66.70
2018-12-27T19:14:21.389Z,66.98
2018-12-27T19:19:25.175Z,67.34
2018-12-27T19:24:28.996Z,67.00
2018-12-27T19:29:32.709Z,66.82
2018-12-27T19:34:36.641Z,67.01
2018-12-27T19:39:40.445Z,66.07
2018-12-27T19:44:44.228Z,66.29
2018-12-27T19:49:48.057Z,66.60
2018-12-27T19:54:51.837Z,66.19
2018-12-27T19:59:55.674Z,66.59
2018-12-27T20:04:59.646Z,66.40
2018-12-27T20:10:03.418Z,66.41
2018-12-27T20:15:07.396Z,66.33
2018-12-27T20:20:11.205Z,65.94
2018-12-27T20:25:14.991Z,65.61
2018-12-27T20:30:18.748Z,66.05
2018-12-27T20:35:22.476Z,66.58
2018-12-27T20:40:26.245Z,66.56
2018-12-27T20:45:29.978Z,66.48
2018-12-27T20:50:33.718Z,66.21
2018-12-27T20:55:37.641Z,65.79
2018-12-27T21:00:43.639Z,66.23
2018-12-27T21:05:47.654Z,66.08
2018-12-27T21:10:51.535Z,66.31
2018-12-27T21:15:55.366Z,66.06
2018-12-27T21:20:59.283Z,66.50
2018-12-27T21:26:03.223Z,67.23
2018-12-27T21:31:07.121Z,67.03
2018-12-27T21:36:11.064Z,67.42
2018-12-27T21:41:14.958Z,67.87
2018-12-27T21:46:18.832Z,67.36
2018-12-27T21:51:22.663Z,66.93
2018-12-27T21:56:26.462Z,67.07
2018-12-27T22:01:30.242Z,67.06
2018-12-27T22:06:34.176Z,67.68
2018-12-27T22:11:38.315Z,68.36
2018-12-27T22:16:42.208Z,67.76
2018-12-27T22:21:46.216Z,67.86
2018-12-27T22:26:49.988Z,67.95
2018-12-27T22:31:54.012Z,68.35
2018-12-27T22:36:59.413Z,68.73
2018-12-27T22:42:05.256Z,69.41
2018-12-27T22:47:09.188Z,69.23
2018-12-27T22:52:14.434Z,70.13
2018-12-27T22:57:19.341Z,70.79
2018-12-27T23:02:23.362Z,71.08
2018-12-27T23:07:27.136Z,70.66
2018-12-27T23:12:31.043Z,70.98
2018-12-27T23:17:34.778Z,71.28
2018-12-27T23:22:38.535Z,71.41
2018-12-27T23:27:44.600Z,71.60
2018-12-27T23:32:48.477Z,71.87
2018-12-27T23:37:52.415Z,72.54
2018-12-27T23:42:56.375Z,72.25
2018-12-27T23:48:00.414Z,72.96
2018-12-27T23:53:04.358Z,72.46
2018-12-27T23:58:08.274Z,72.41
